Time;durP1;ratioP1;P1;durP2;ratioP2;P2;SDS_P1;SDS_P2;PMS_P1;PMS_P2;Temp;Humidity;BMP_temperature;BMP_pressure;BME280_temperature;BME280_humidity;BME280_pressure;Samples;Min_cycle;Max_cycle;Signal;HPM_P1;HPM_P2
2021/07/28 00:01:10;;;;;;;24.77;6.28;;;;;;;;;;5053708;28;20043;-69
2021/07/28 00:03:36;;;;;;;23.38;5.85;;;;;;;;;;5053828;28;20032;-70
2021/07/28 00:06:02;;;;;;;16.13;5.57;;;;;;;;;;5053576;28;20100;-70
2021/07/28 00:08:28;;;;;;;16.27;5.03;;;;;;;;;;5053476;28;20035;-70
2021/07/28 00:10:54;;;;;;;24.00;5.63;;;;;;;;;;5052938;28;20098;-71
2021/07/28 00:13:21;;;;;;;19.65;7.20;;;;;;;;;;5053562;28;20037;-72
2021/07/28 00:15:47;;;;;;;21.83;6.28;;;;;;;;;;5053745;28;20024;-73
2021/07/28 00:18:20;;;;;;;18.65;6.20;;;;;;;;;;5052131;28;20330;-69
2021/07/28 00:23:15;;;;;;;18.90;5.78;;;;;;;;;;5053392;28;20526;-69
2021/07/28 00:25:45;;;;;;;23.17;6.50;;;;;;;;;;5053462;28;20032;-70
2021/07/28 00:28:12;;;;;;;21.85;7.13;;;;;;;;;;5053128;28;20024;-70
2021/07/28 00:30:38;;;;;;;18.13;5.90;;;;;;;;;;5053248;28;20187;-70
2021/07/28 00:33:04;;;;;;;14.57;5.03;;;;;;;;;;5053097;28;20043;-70
2021/07/28 00:35:30;;;;;;;20.50;6.15;;;;;;;;;;5053167;28;20096;-69
2021/07/28 00:38:01;;;;;;;20.77;6.35;;;;;;;;;;5053092;28;20021;-70
2021/07/28 00:40:27;;;;;;;23.80;6.03;;;;;;;;;;5052943;28;20112;-68
2021/07/28 00:43:07;;;;;;;25.00;6.25;;;;;;;;;;5052931;28;20071;-68
2021/07/28 00:45:33;;;;;;;19.20;5.65;;;;;;;;;;5052996;28;20435;-70
2021/07/28 00:47:59;;;;;;;23.27;6.32;;;;;;;;;;5051537;28;20021;-69
2021/07/28 00:50:25;;;;;;;17.42;5.25;;;;;;;;;;5051510;28;20029;-70
2021/07/28 00:52:52;;;;;;;19.00;6.00;;;;;;;;;;5046292;28;20044;-68
2021/07/28 00:55:18;;;;;;;16.65;5.00;;;;;;;;;;5032086;28;20037;-68
2021/07/28 00:57:44;;;;;;;22.20;5.65;;;;;;;;;;5031062;28;20018;-68
2021/07/28 01:00:10;;;;;;;24.40;6.60;;;;;;;;;;5051572;28;20017;-69
2021/07/28 01:02:36;;;;;;;19.92;6.20;;;;;;;;;;5052154;28;20067;-69
2021/07/28 01:05:04;;;;;;;19.58;5.60;;;;;;;;;;5045272;28;20087;-68
2021/07/28 01:07:31;;;;;;;20.98;6.22;;;;;;;;;;5046650;28;20052;-68
2021/07/28 01:09:57;;;;;;;22.45;5.97;;;;;;;;;;5051432;28;20087;-68
2021/07/28 01:12:29;;;;;;;26.00;7.15;;;;;;;;;;5051473;28;20033;-69
2021/07/28 01:14:55;;;;;;;28.33;7.18;;;;;;;;;;5051947;28;20031;-68
2021/07/28 01:17:21;;;;;;;19.02;5.70;;;;;;;;;;5051808;28;20032;-69
2021/07/28 01:19:53;;;;;;;23.17;6.68;;;;;;;;;;5051768;28;20033;-68
2021/07/28 01:22:22;;;;;;;19.20;5.75;;;;;;;;;;5050788;28;20052;-68
2021/07/28 01:24:48;;;;;;;21.00;5.97;;;;;;;;;;5051931;28;20114;-70
2021/07/28 01:27:14;;;;;;;14.40;5.85;;;;;;;;;;5051734;28;20082;-68
2021/07/28 01:29:40;;;;;;;20.33;6.57;;;;;;;;;;5067012;28;20070;-68
2021/07/28 01:32:06;;;;;;;18.65;5.60;;;;;;;;;;5051748;28;20033;-68
2021/07/28 01:34:33;;;;;;;22.50;5.60;;;;;;;;;;5051556;28;20028;-67
2021/07/28 01:37:00;;;;;;;23.73;6.32;;;;;;;;;;5051805;28;20028;-68
2021/07/28 01:39:26;;;;;;;27.27;6.70;;;;;;;;;;5051712;28;20027;-68
2021/07/28 01:42:01;;;;;;;19.65;6.40;;;;;;;;;;5051542;28;20044;-67
2021/07/28 01:44:27;;;;;;;36.15;6.47;;;;;;;;;;5051670;28;20021;-68
2021/07/28 01:46:53;;;;;;;22.60;7.05;;;;;;;;;;5052182;28;20142;-69
2021/07/28 01:49:20;;;;;;;25.05;7.05;;;;;;;;;;5052220;28;20025;-68
2021/07/28 01:51:46;;;;;;;33.42;6.22;;;;;;;;;;5051809;28;20032;-68
2021/07/28 01:54:12;;;;;;;21.73;6.43;;;;;;;;;;5051754;28;20102;-67
2021/07/28 01:56:42;;;;;;;21.98;6.93;;;;;;;;;;5051302;28;20037;-68
2021/07/28 01:59:12;;;;;;;22.40;6.70;;;;;;;;;;5051888;28;20029;-68
2021/07/28 02:01:38;;;;;;;21.05;6.00;;;;;;;;;;5052007;28;20025;-68
2021/07/28 02:04:05;;;;;;;22.10;6.45;;;;;;;;;;5051995;28;20021;-68
2021/07/28 02:06:32;;;;;;;29.27;6.93;;;;;;;;;;5051914;28;20131;-68
2021/07/28 02:08:58;;;;;;;23.02;6.93;;;;;;;;;;5051710;28;20088;-67
2021/07/28 02:11:24;;;;;;;18.30;6.68;;;;;;;;;;5049012;28;20069;-68
2021/07/28 02:13:50;;;;;;;28.33;7.43;;;;;;;;;;5064953;28;20047;-68
2021/07/28 02:16:16;;;;;;;29.92;8.40;;;;;;;;;;5071101;28;20047;-68
2021/07/28 02:18:42;;;;;;;23.30;7.18;;;;;;;;;;5071583;28;20021;-68
2021/07/28 02:21:08;;;;;;;23.25;6.90;;;;;;;;;;5071668;28;20016;-68
2021/07/28 02:23:34;;;;;;;23.70;6.85;;;;;;;;;;5071736;28;20025;-68
2021/07/28 02:26:00;;;;;;;30.08;7.65;;;;;;;;;;5071926;28;20024;-68
2021/07/28 02:28:26;;;;;;;23.58;6.50;;;;;;;;;;5053697;28;20021;-68
2021/07/28 02:30:52;;;;;;;24.73;6.70;;;;;;;;;;5062128;28;20081;-69
2021/07/28 02:33:18;;;;;;;18.98;6.40;;;;;;;;;;5072243;28;20037;-69
2021/07/28 02:35:44;;;;;;;22.13;6.03;;;;;;;;;;5074761;28;20017;-68
2021/07/28 02:38:11;;;;;;;20.33;6.65;;;;;;;;;;5074835;28;20032;-69
2021/07/28 02:40:37;;;;;;;26.45;7.10;;;;;;;;;;5075170;28;20024;-69
2021/07/28 02:43:03;;;;;;;25.23;6.68;;;;;;;;;;5057229;28;20032;-68
2021/07/28 02:45:29;;;;;;;24.50;6.53;;;;;;;;;;5074953;28;20094;-69
2021/07/28 02:47:55;;;;;;;26.10;6.40;;;;;;;;;;5074952;28;20056;-68
2021/07/28 02:50:21;;;;;;;28.17;6.65;;;;;;;;;;5057193;28;20028;-68
2021/07/28 02:52:47;;;;;;;28.15;7.20;;;;;;;;;;5056715;28;20032;-71
2021/07/28 02:55:13;;;;;;;30.52;7.60;;;;;;;;;;5074659;28;20030;-72
2021/07/28 02:57:39;;;;;;;28.50;6.18;;;;;;;;;;5074347;28;20048;-71
2021/07/28 03:00:06;;;;;;;26.55;7.07;;;;;;;;;;5074354;28;20039;-69
2021/07/28 03:02:32;;;;;;;28.08;7.45;;;;;;;;;;5074304;28;20012;-71
2021/07/28 03:04:58;;;;;;;31.73;7.60;;;;;;;;;;5074389;28;20031;-69
2021/07/28 03:07:25;;;;;;;25.38;6.55;;;;;;;;;;5056450;28;20024;-68
2021/07/28 03:09:51;;;;;;;26.75;7.20;;;;;;;;;;5074055;28;20099;-68
2021/07/28 03:12:17;;;;;;;25.92;6.57;;;;;;;;;;5074174;28;20032;-68
2021/07/28 03:14:43;;;;;;;22.50;6.43;;;;;;;;;;5074164;28;20048;-70
2021/07/28 03:17:09;;;;;;;21.98;6.68;;;;;;;;;;5074147;28;20593;-69
2021/07/28 03:19:35;;;;;;;23.17;7.25;;;;;;;;;;5056095;28;20028;-68
2021/07/28 03:22:01;;;;;;;22.05;6.38;;;;;;;;;;5074349;28;20040;-68
2021/07/28 03:24:27;;;;;;;25.73;6.88;;;;;;;;;;5074372;28;20609;-68
2021/07/28 03:26:53;;;;;;;26.92;7.10;;;;;;;;;;5074370;28;20021;-68
2021/07/28 03:29:22;;;;;;;22.02;7.10;;;;;;;;;;5074070;28;20475;-69
2021/07/28 03:31:49;;;;;;;23.50;7.00;;;;;;;;;;5074241;28;20082;-69
2021/07/28 03:34:15;;;;;;;26.55;6.93;;;;;;;;;;5074172;28;20055;-72
2021/07/28 03:36:41;;;;;;;27.98;6.70;;;;;;;;;;5073876;28;20027;-68
2021/07/28 03:39:07;;;;;;;23.58;6.90;;;;;;;;;;5074220;28;20418;-75
2021/07/28 03:41:34;;;;;;;24.48;7.13;;;;;;;;;;5073697;28;20017;-68
2021/07/28 03:44:00;;;;;;;25.70;6.43;;;;;;;;;;5073702;28;20120;-68
2021/07/28 03:46:26;;;;;;;23.17;7.03;;;;;;;;;;5073289;28;20013;-68
2021/07/28 03:48:52;;;;;;;20.83;6.40;;;;;;;;;;5073878;28;20029;-67
2021/07/28 03:51:18;;;;;;;25.38;7.50;;;;;;;;;;5073816;28;20100;-68
2021/07/28 03:53:44;;;;;;;22.15;6.50;;;;;;;;;;5073908;28;20055;-69
2021/07/28 03:56:10;;;;;;;22.33;6.82;;;;;;;;;;5073538;28;20028;-69
2021/07/28 03:58:36;;;;;;;26.75;6.93;;;;;;;;;;5073584;28;20111;-70
2021/07/28 04:01:02;;;;;;;23.20;6.63;;;;;;;;;;5073675;28;20056;-67
2021/07/28 04:03:28;;;;;;;25.52;7.03;;;;;;;;;;5073624;28;20429;-68
2021/07/28 04:05:55;;;;;;;28.02;7.13;;;;;;;;;;5073384;28;20020;-68
2021/07/28 04:08:21;;;;;;;19.75;6.55;;;;;;;;;;5055177;28;20024;-68
2021/07/28 04:10:48;;;;;;;24.70;7.57;;;;;;;;;;5055212;28;20052;-69
2021/07/28 04:13:14;;;;;;;29.27;6.95;;;;;;;;;;5073366;28;20475;-69
2021/07/28 04:15:40;;;;;;;22.88;7.15;;;;;;;;;;5073493;28;20146;-69
2021/07/28 04:18:06;;;;;;;21.48;6.88;;;;;;;;;;5073271;28;20058;-69
2021/07/28 04:20:32;;;;;;;15.70;6.93;;;;;;;;;;5064739;28;20032;-68
2021/07/28 04:22:58;;;;;;;23.52;6.93;;;;;;;;;;5070929;28;20530;-68
2021/07/28 04:25:24;;;;;;;23.15;7.35;;;;;;;;;;5054212;28;20090;-68
2021/07/28 04:27:50;;;;;;;23.40;7.70;;;;;;;;;;5072461;28;20086;-69
2021/07/28 04:30:17;;;;;;;26.23;7.72;;;;;;;;;;5072580;28;20132;-69
2021/07/28 04:32:43;;;;;;;16.73;6.55;;;;;;;;;;5072674;28;20087;-70
2021/07/28 04:35:09;;;;;;;16.45;7.20;;;;;;;;;;5072681;28;20090;-69
2021/07/28 04:37:35;;;;;;;25.23;7.05;;;;;;;;;;5072753;28;20056;-69
2021/07/28 04:40:02;;;;;;;29.55;7.80;;;;;;;;;;5072551;28;20036;-69
2021/07/28 04:42:29;;;;;;;32.53;7.85;;;;;;;;;;5054459;28;20032;-69
2021/07/28 04:44:55;;;;;;;26.15;8.05;;;;;;;;;;5072422;28;20016;-69
2021/07/28 04:47:22;;;;;;;25.25;7.28;;;;;;;;;;5054703;28;20047;-69
2021/07/28 04:49:48;;;;;;;25.42;7.55;;;;;;;;;;5072459;28;20024;-70
2021/07/28 04:52:14;;;;;;;22.38;6.93;;;;;;;;;;5054538;28;20041;-68
2021/07/28 04:54:40;;;;;;;22.63;7.20;;;;;;;;;;5072287;28;20025;-69
2021/07/28 04:57:06;;;;;;;35.17;7.70;;;;;;;;;;5071974;28;20028;-68
2021/07/28 04:59:32;;;;;;;19.73;6.82;;;;;;;;;;5072558;28;20035;-69
2021/07/28 05:01:58;;;;;;;28.25;6.93;;;;;;;;;;5054070;28;20017;-69
2021/07/28 05:04:24;;;;;;;29.27;7.40;;;;;;;;;;5072278;28;20025;-69
2021/07/28 05:06:51;;;;;;;24.40;7.93;;;;;;;;;;5071971;28;20044;-69
2021/07/28 05:09:17;;;;;;;30.20;8.55;;;;;;;;;;5054138;28;20031;-69
2021/07/28 05:11:43;;;;;;;20.70;7.43;;;;;;;;;;5072122;28;20024;-69
2021/07/28 05:14:09;;;;;;;22.27;7.35;;;;;;;;;;5072129;28;20029;-69
2021/07/28 05:16:35;;;;;;;21.33;6.85;;;;;;;;;;5071802;28;20020;-69
2021/07/28 05:19:01;;;;;;;28.63;7.88;;;;;;;;;;5071959;28;20036;-69
2021/07/28 05:21:27;;;;;;;29.10;8.90;;;;;;;;;;5054296;28;20623;-69
2021/07/28 05:23:53;;;;;;;21.08;7.50;;;;;;;;;;5072382;28;20028;-69
2021/07/28 05:26:19;;;;;;;27.58;7.75;;;;;;;;;;5072066;28;20092;-69
2021/07/28 05:28:45;;;;;;;29.77;7.47;;;;;;;;;;5071664;28;20024;-69
2021/07/28 05:31:11;;;;;;;28.88;7.90;;;;;;;;;;5071581;28;20042;-69
2021/07/28 05:33:37;;;;;;;27.90;7.82;;;;;;;;;;5071768;28;20059;-70
2021/07/28 05:36:03;;;;;;;27.83;7.65;;;;;;;;;;5071979;28;20025;-69
2021/07/28 05:38:29;;;;;;;28.75;7.68;;;;;;;;;;5071966;28;20504;-69
2021/07/28 05:40:55;;;;;;;24.17;7.97;;;;;;;;;;5072047;28;20565;-69
2021/07/28 05:43:25;;;;;;;27.40;8.25;;;;;;;;;;5071954;28;20021;-70
2021/07/28 05:45:51;;;;;;;24.80;8.90;;;;;;;;;;5072090;28;20024;-69
2021/07/28 05:48:17;;;;;;;23.60;7.80;;;;;;;;;;5071910;28;20028;-70
2021/07/28 05:50:43;;;;;;;23.38;7.53;;;;;;;;;;5071908;28;20024;-68
2021/07/28 05:53:09;;;;;;;24.23;8.25;;;;;;;;;;5071652;28;20032;-70
2021/07/28 05:55:36;;;;;;;24.65;6.45;;;;;;;;;;5071785;28;20103;-69
2021/07/28 05:58:02;;;;;;;23.75;7.72;;;;;;;;;;5071707;28;20029;-69
2021/07/28 06:00:28;;;;;;;23.75;7.78;;;;;;;;;;5071924;28;20020;-69
2021/07/28 06:02:54;;;;;;;25.13;7.30;;;;;;;;;;5071700;28;20104;-70
2021/07/28 06:05:20;;;;;;;28.98;8.65;;;;;;;;;;5053857;28;20020;-73
2021/07/28 06:07:46;;;;;;;27.73;7.72;;;;;;;;;;5071579;28;20036;-69
2021/07/28 06:10:14;;;;;;;25.90;7.15;;;;;;;;;;5074979;28;20399;-69
2021/07/28 06:12:40;;;;;;;26.60;7.35;;;;;;;;;;5075430;28;20033;-69
2021/07/28 06:15:06;;;;;;;31.05;8.52;;;;;;;;;;5057352;28;20654;-69
2021/07/28 06:17:32;;;;;;;24.50;7.55;;;;;;;;;;5075100;28;20025;-69
2021/07/28 06:19:58;;;;;;;21.02;7.47;;;;;;;;;;5075253;28;20027;-70
2021/07/28 06:22:24;;;;;;;24.42;7.75;;;;;;;;;;5049507;28;20020;-70
2021/07/28 06:24:51;;;;;;;27.42;7.32;;;;;;;;;;5057011;28;20021;-69
2021/07/28 06:27:17;;;;;;;28.55;7.55;;;;;;;;;;5074553;28;20046;-69
2021/07/28 06:29:43;;;;;;;24.25;7.03;;;;;;;;;;5075404;28;20021;-69
2021/07/28 06:32:09;;;;;;;23.27;7.50;;;;;;;;;;5075246;28;20025;-69
2021/07/28 06:34:35;;;;;;;25.02;7.25;;;;;;;;;;5075160;28;20051;-69
2021/07/28 06:37:01;;;;;;;16.88;7.35;;;;;;;;;;5056989;28;20117;-69
2021/07/28 06:39:27;;;;;;;22.55;7.68;;;;;;;;;;5075131;28;20021;-69
2021/07/28 06:41:53;;;;;;;27.45;8.30;;;;;;;;;;5075283;28;20024;-69
2021/07/28 06:44:20;;;;;;;19.52;7.53;;;;;;;;;;5075208;28;20035;-69
2021/07/28 06:46:46;;;;;;;20.80;6.80;;;;;;;;;;5075174;28;20028;-69
2021/07/28 06:49:12;;;;;;;22.35;7.05;;;;;;;;;;5074733;28;20035;-69
2021/07/28 06:51:38;;;;;;;23.63;7.70;;;;;;;;;;5074686;28;20078;-70
2021/07/28 06:54:04;;;;;;;23.40;7.07;;;;;;;;;;5074526;28;20107;-69
2021/07/28 06:56:30;;;;;;;28.73;7.68;;;;;;;;;;5074975;28;20063;-69
2021/07/28 06:58:56;;;;;;;31.33;7.63;;;;;;;;;;5074725;28;20028;-69
2021/07/28 07:01:22;;;;;;;30.27;7.95;;;;;;;;;;5074892;28;20328;-69
2021/07/28 07:03:48;;;;;;;26.88;8.32;;;;;;;;;;5074593;28;20017;-68
2021/07/28 07:06:14;;;;;;;30.98;7.85;;;;;;;;;;5074883;28;20031;-69
2021/07/28 07:08:40;;;;;;;28.33;7.72;;;;;;;;;;5056810;28;20028;-69
2021/07/28 07:11:06;;;;;;;24.65;7.97;;;;;;;;;;5074425;28;20042;-69
2021/07/28 07:13:34;;;;;;;25.77;8.13;;;;;;;;;;5074570;28;20067;-69
2021/07/28 07:16:00;;;;;;;32.50;7.70;;;;;;;;;;5074453;28;20020;-69
2021/07/28 07:18:26;;;;;;;30.38;7.97;;;;;;;;;;5074509;28;20056;-69
2021/07/28 07:20:52;;;;;;;27.55;7.45;;;;;;;;;;5064502;28;20020;-68
2021/07/28 07:23:18;;;;;;;27.95;8.50;;;;;;;;;;5074391;28;20046;-68
2021/07/28 07:25:44;;;;;;;25.15;8.35;;;;;;;;;;5074319;28;20021;-69
2021/07/28 07:28:10;;;;;;;29.35;8.00;;;;;;;;;;5074152;28;20025;-69
2021/07/28 07:30:36;;;;;;;30.08;8.23;;;;;;;;;;5074044;28;20095;-70
2021/07/28 07:35:47;;;;;;;20.15;6.82;;;;;;;;;;5074301;28;20036;-69
2021/07/28 07:38:13;;;;;;;26.10;7.55;;;;;;;;;;5055993;28;20422;-69
2021/07/28 07:40:39;;;;;;;24.65;7.70;;;;;;;;;;5074416;28;20021;-69
2021/07/28 07:43:08;;;;;;;20.52;7.47;;;;;;;;;;5055870;28;20021;-69
2021/07/28 07:45:36;;;;;;;25.98;7.90;;;;;;;;;;5061939;28;20476;-72
2021/07/28 07:48:02;;;;;;;23.45;7.38;;;;;;;;;;5071741;28;20031;-69
2021/07/28 07:50:31;;;;;;;31.48;7.38;;;;;;;;;;5073612;28;20024;-69
2021/07/28 07:53:00;;;;;;;24.58;7.35;;;;;;;;;;5040358;28;20037;-69
2021/07/28 07:55:26;;;;;;;28.20;8.18;;;;;;;;;;5051615;28;20021;-69
2021/07/28 07:57:52;;;;;;;24.02;7.00;;;;;;;;;;5052554;28;20025;-70
2021/07/28 08:00:18;;;;;;;24.00;6.97;;;;;;;;;;5034523;28;20040;-71
2021/07/28 08:02:44;;;;;;;24.33;7.85;;;;;;;;;;5033426;28;20036;-70
2021/07/28 08:05:10;;;;;;;24.05;7.15;;;;;;;;;;5033768;28;20021;-71
2021/07/28 08:07:36;;;;;;;21.02;6.75;;;;;;;;;;5033525;28;20028;-71
2021/07/28 08:10:02;;;;;;;20.63;7.18;;;;;;;;;;5033344;28;20053;-71
2021/07/28 08:12:28;;;;;;;26.60;7.28;;;;;;;;;;5031812;28;20442;-73
2021/07/28 08:14:54;;;;;;;26.48;7.45;;;;;;;;;;5033062;28;20499;-71
2021/07/28 08:17:20;;;;;;;19.88;7.18;;;;;;;;;;5032920;28;20033;-71
2021/07/28 08:19:46;;;;;;;25.08;7.53;;;;;;;;;;5032026;28;20009;-69
2021/07/28 08:22:12;;;;;;;23.38;7.80;;;;;;;;;;5033211;28;20029;-71
2021/07/28 08:24:38;;;;;;;25.27;7.20;;;;;;;;;;5033279;28;20100;-71
2021/07/28 08:27:04;;;;;;;22.55;7.28;;;;;;;;;;5032773;28;20018;-71
2021/07/28 08:29:30;;;;;;;25.27;7.60;;;;;;;;;;5032869;28;20494;-72
2021/07/28 08:31:57;;;;;;;36.00;9.15;;;;;;;;;;5032140;28;20034;-70
2021/07/28 08:34:23;;;;;;;33.67;9.50;;;;;;;;;;5032962;28;20052;-69
2021/07/28 08:36:49;;;;;;;23.98;6.60;;;;;;;;;;5031579;28;20025;-70
2021/07/28 08:39:15;;;;;;;21.08;6.28;;;;;;;;;;5037162;28;20084;-71
2021/07/28 08:41:42;;;;;;;23.75;7.13;;;;;;;;;;5054588;28;20680;-70
2021/07/28 08:44:08;;;;;;;21.85;6.30;;;;;;;;;;5072894;28;20016;-71
2021/07/28 08:46:34;;;;;;;27.25;7.03;;;;;;;;;;5072618;28;20024;-71
2021/07/28 08:49:01;;;;;;;22.73;6.95;;;;;;;;;;5072521;28;20053;-70
2021/07/28 08:51:27;;;;;;;15.13;6.70;;;;;;;;;;5038868;28;20029;-72
2021/07/28 08:53:54;;;;;;;21.95;6.00;;;;;;;;;;5052496;28;20029;-70
2021/07/28 08:56:23;;;;;;;21.05;6.40;;;;;;;;;;5034418;28;20025;-71
2021/07/28 08:58:49;;;;;;;19.23;5.82;;;;;;;;;;5052301;28;20379;-71
2021/07/28 09:01:15;;;;;;;19.52;6.55;;;;;;;;;;5060690;28;20025;-70
2021/07/28 09:03:41;;;;;;;24.00;6.47;;;;;;;;;;5054301;28;20103;-71
2021/07/28 09:06:07;;;;;;;18.65;7.10;;;;;;;;;;5072311;28;20020;-72
2021/07/28 09:08:35;;;;;;;16.42;6.53;;;;;;;;;;5072379;28;20406;-72
2021/07/28 09:11:05;;;;;;;26.13;7.85;;;;;;;;;;5072207;28;20122;-72
2021/07/28 09:13:34;;;;;;;23.15;6.63;;;;;;;;;;5072333;28;20043;-72
2021/07/28 09:16:02;;;;;;;19.15;6.55;;;;;;;;;;5054536;28;20134;-71
2021/07/28 09:18:28;;;;;;;16.42;6.00;;;;;;;;;;5054434;28;20491;-72
2021/07/28 09:20:54;;;;;;;22.25;6.43;;;;;;;;;;5072133;28;20386;-71
2021/07/28 09:23:21;;;;;;;16.27;6.10;;;;;;;;;;5071924;28;20021;-72
2021/07/28 09:25:55;;;;;;;17.15;5.63;;;;;;;;;;5072177;28;20028;-70
2021/07/28 09:28:21;;;;;;;13.55;5.78;;;;;;;;;;5054070;28;20020;-71
2021/07/28 09:30:48;;;;;;;12.90;5.18;;;;;;;;;;5072165;28;20107;-71
2021/07/28 09:33:15;;;;;;;17.92;7.03;;;;;;;;;;5054153;28;20045;-71
2021/07/28 09:35:50;;;;;;;19.63;7.00;;;;;;;;;;5072000;28;20020;-70
2021/07/28 09:38:30;;;;;;;17.02;6.55;;;;;;;;;;5071745;28;20024;-71
2021/07/28 09:41:18;;;;;;;15.60;5.32;;;;;;;;;;5071942;28;20024;-71
2021/07/28 09:43:48;;;;;;;17.42;6.10;;;;;;;;;;5073954;28;20029;-71
2021/07/28 09:46:23;;;;;;;18.95;5.88;;;;;;;;;;5076069;28;20534;-71
2021/07/28 09:48:50;;;;;;;19.88;6.53;;;;;;;;;;5075985;28;20094;-71
2021/07/28 09:51:23;;;;;;;22.80;6.55;;;;;;;;;;5062059;28;20033;-71
2021/07/28 09:53:59;;;;;;;15.30;5.80;;;;;;;;;;5056132;28;20070;-71
2021/07/28 09:56:30;;;;;;;17.83;5.90;;;;;;;;;;5055765;28;20017;-72
2021/07/28 09:58:58;;;;;;;15.30;5.32;;;;;;;;;;5055633;28;20029;-72
2021/07/28 10:01:24;;;;;;;17.90;5.80;;;;;;;;;;5055859;28;20063;-72
2021/07/28 10:03:51;;;;;;;19.05;5.75;;;;;;;;;;5055776;28;20491;-72
2021/07/28 10:06:17;;;;;;;17.58;6.07;;;;;;;;;;5054574;28;20456;-72
2021/07/28 10:08:44;;;;;;;18.33;5.07;;;;;;;;;;5054416;28;20120;-72
2021/07/28 10:11:13;;;;;;;14.82;5.25;;;;;;;;;;5055542;28;20052;-72
2021/07/28 10:13:39;;;;;;;21.88;6.40;;;;;;;;;;5055676;28;20093;-72
2021/07/28 10:16:06;;;;;;;15.00;5.00;;;;;;;;;;5054159;28;20021;-72
2021/07/28 10:18:32;;;;;;;21.23;6.00;;;;;;;;;;5055134;28;20066;-72
2021/07/28 10:20:58;;;;;;;17.55;6.07;;;;;;;;;;5055402;28;20040;-72
2021/07/28 10:23:24;;;;;;;18.77;5.43;;;;;;;;;;5054217;28;20017;-72
2021/07/28 10:25:51;;;;;;;16.55;6.18;;;;;;;;;;5054290;28;20021;-72
2021/07/28 10:28:17;;;;;;;17.10;6.30;;;;;;;;;;5055347;28;20078;-72
2021/07/28 10:30:45;;;;;;;15.15;6.43;;;;;;;;;;5055340;28;20382;-72
2021/07/28 10:33:27;;;;;;;23.10;6.95;;;;;;;;;;5054056;28;20498;-69
2021/07/28 10:35:53;;;;;;;20.57;6.43;;;;;;;;;;5055240;28;20024;-71
2021/07/28 10:38:20;;;;;;;16.90;5.10;;;;;;;;;;5055297;28;20267;-70
2021/07/28 10:40:51;;;;;;;16.88;5.60;;;;;;;;;;5055130;28;20027;-70
2021/07/28 10:43:17;;;;;;;15.80;5.38;;;;;;;;;;5054978;28;20112;-70
2021/07/28 10:45:56;;;;;;;13.18;5.07;;;;;;;;;;5055105;28;20022;-71
2021/07/28 10:48:37;;;;;;;12.05;4.55;;;;;;;;;;5055019;28;20075;-70
2021/07/28 10:51:03;;;;;;;16.35;6.55;;;;;;;;;;5054692;28;20027;-71
2021/07/28 10:53:48;;;;;;;15.85;4.85;;;;;;;;;;5054574;28;20037;-72
2021/07/28 10:56:14;;;;;;;22.45;6.65;;;;;;;;;;5054790;28;20021;-72
2021/07/28 10:58:40;;;;;;;20.27;5.80;;;;;;;;;;5054803;28;20016;-72
2021/07/28 11:01:06;;;;;;;19.48;5.88;;;;;;;;;;5058600;28;20094;-71
2021/07/28 11:03:33;;;;;;;19.45;6.03;;;;;;;;;;5074477;28;20013;-71
2021/07/28 11:06:18;;;;;;;17.02;6.20;;;;;;;;;;5056557;28;20028;-70
2021/07/28 11:08:44;;;;;;;24.95;6.28;;;;;;;;;;5074631;28;20031;-70
2021/07/28 11:11:19;;;;;;;13.95;5.50;;;;;;;;;;5056323;28;20070;-71
2021/07/28 11:13:45;;;;;;;16.45;5.55;;;;;;;;;;5074616;28;20039;-71
2021/07/28 11:16:11;;;;;;;20.98;6.45;;;;;;;;;;5074743;28;20048;-72
2021/07/28 11:18:38;;;;;;;20.60;6.90;;;;;;;;;;5074267;28;20024;-71
2021/07/28 11:21:08;;;;;;;12.00;6.10;;;;;;;;;;5074328;28;20052;-71
2021/07/28 11:23:34;;;;;;;18.58;5.75;;;;;;;;;;5074399;28;20095;-71
2021/07/28 11:26:02;;;;;;;17.90;5.93;;;;;;;;;;5074730;28;20432;-71
2021/07/28 11:28:28;;;;;;;16.25;6.30;;;;;;;;;;5056261;28;20020;-70
2021/07/28 11:30:59;;;;;;;19.25;5.80;;;;;;;;;;5074133;28;20032;-71
2021/07/28 11:33:25;;;;;;;13.95;5.07;;;;;;;;;;5074169;28;20078;-72
2021/07/28 11:35:52;;;;;;;11.95;4.85;;;;;;;;;;5073977;28;20112;-71
2021/07/28 11:38:19;;;;;;;15.20;5.72;;;;;;;;;;5073668;28;20028;-72
2021/07/28 11:40:52;;;;;;;18.50;5.90;;;;;;;;;;5055908;28;20123;-71
2021/07/28 11:43:21;;;;;;;17.45;5.75;;;;;;;;;;5073778;28;20494;-72
2021/07/28 11:45:48;;;;;;;15.00;6.25;;;;;;;;;;5074053;28;20115;-71
2021/07/28 11:48:26;;;;;;;17.90;6.65;;;;;;;;;;5055723;28;20032;-71
2021/07/28 11:50:52;;;;;;;20.65;6.93;;;;;;;;;;5062964;28;20029;-72
2021/07/28 11:53:28;;;;;;;18.25;6.57;;;;;;;;;;5053789;28;20093;-71
2021/07/28 11:55:54;;;;;;;22.65;5.20;;;;;;;;;;5053966;28;20076;-71
2021/07/28 11:58:23;;;;;;;15.45;6.47;;;;;;;;;;5053705;28;20017;-70
2021/07/28 12:00:50;;;;;;;18.63;5.00;;;;;;;;;;5053590;28;20025;-70
2021/07/28 12:03:22;;;;;;;17.40;5.55;;;;;;;;;;5053694;28;20171;-72
2021/07/28 12:06:05;;;;;;;18.85;6.00;;;;;;;;;;5051275;28;20506;-71
2021/07/28 12:08:32;;;;;;;17.33;6.55;;;;;;;;;;5053454;28;20021;-71
2021/07/28 12:11:08;;;;;;;18.60;6.43;;;;;;;;;;5053381;28;20056;-72
2021/07/28 12:13:40;;;;;;;16.30;6.22;;;;;;;;;;5053278;28;20032;-72
2021/07/28 12:16:07;;;;;;;18.10;4.88;;;;;;;;;;5053489;28;20025;-71
2021/07/28 12:18:43;;;;;;;30.25;6.80;;;;;;;;;;5052926;28;20025;-71
2021/07/28 12:21:09;;;;;;;23.02;5.97;;;;;;;;;;5051758;28;20040;-71
2021/07/28 12:23:36;;;;;;;15.27;6.35;;;;;;;;;;5053268;28;20032;-71
2021/07/28 12:26:02;;;;;;;19.15;5.63;;;;;;;;;;5053228;28;20017;-71
2021/07/28 12:28:47;;;;;;;20.73;5.82;;;;;;;;;;5053142;28;20246;-71
2021/07/28 12:31:28;;;;;;;19.33;6.03;;;;;;;;;;5053129;28;20096;-70
2021/07/28 12:33:55;;;;;;;16.48;6.05;;;;;;;;;;5051809;28;20549;-71
2021/07/28 12:36:28;;;;;;;19.83;6.07;;;;;;;;;;5053105;28;20025;-73
2021/07/28 12:38:54;;;;;;;18.23;5.40;;;;;;;;;;5052933;28;20024;-70
2021/07/28 12:41:21;;;;;;;23.02;6.18;;;;;;;;;;5052785;28;20044;-71
2021/07/28 12:43:48;;;;;;;14.85;5.43;;;;;;;;;;5052840;28;20028;-72
2021/07/28 12:46:14;;;;;;;16.83;4.43;;;;;;;;;;5052915;28;20108;-71
2021/07/28 12:48:41;;;;;;;15.07;5.38;;;;;;;;;;5051566;28;20103;-71
2021/07/28 12:51:13;;;;;;;18.75;5.00;;;;;;;;;;5038546;28;20029;-71
2021/07/28 12:53:39;;;;;;;16.08;5.32;;;;;;;;;;5031366;28;20041;-71
2021/07/28 12:56:06;;;;;;;19.65;5.55;;;;;;;;;;5032634;28;20050;-71
2021/07/28 12:58:32;;;;;;;18.00;4.78;;;;;;;;;;5032342;28;20036;-71
2021/07/28 13:00:59;;;;;;;17.83;5.57;;;;;;;;;;5036452;28;20492;-71
2021/07/28 13:03:27;;;;;;;22.13;6.47;;;;;;;;;;5072492;28;20035;-71
2021/07/28 13:06:09;;;;;;;18.30;5.57;;;;;;;;;;5072467;28;20532;-71
2021/07/28 13:08:35;;;;;;;14.27;4.68;;;;;;;;;;5072379;28;20449;-70
2021/07/28 13:11:01;;;;;;;14.60;4.78;;;;;;;;;;5054251;28;20422;-70
2021/07/28 13:13:28;;;;;;;20.77;5.50;;;;;;;;;;5072307;28;20035;-70
2021/07/28 13:15:55;;;;;;;15.30;5.40;;;;;;;;;;5072435;28;20047;-70
2021/07/28 13:18:21;;;;;;;23.15;6.88;;;;;;;;;;5072133;28;20020;-71
2021/07/28 13:20:47;;;;;;;16.05;5.50;;;;;;;;;;5072345;28;20467;-71
2021/07/28 13:23:16;;;;;;;14.55;5.68;;;;;;;;;;5072262;28;20025;-70
2021/07/28 13:25:42;;;;;;;19.88;5.28;;;;;;;;;;5053390;28;20017;-70
2021/07/28 13:28:08;;;;;;;17.02;3.78;;;;;;;;;;5050604;28;20175;-71
2021/07/28 13:30:34;;;;;;;15.38;4.85;;;;;;;;;;5052196;28;20507;-71
2021/07/28 13:33:01;;;;;;;20.20;5.35;;;;;;;;;;5052109;28;20041;-72
2021/07/28 13:35:27;;;;;;;14.35;4.38;;;;;;;;;;5067293;28;20041;-70
2021/07/28 13:37:53;;;;;;;13.18;4.57;;;;;;;;;;5052034;28;20021;-70
2021/07/28 13:40:19;;;;;;;16.48;4.68;;;;;;;;;;5052090;28;20079;-72
2021/07/28 13:42:49;;;;;;;14.50;4.60;;;;;;;;;;5067253;28;20480;-73
2021/07/28 13:45:15;;;;;;;17.42;4.65;;;;;;;;;;5049579;28;20040;-70
2021/07/28 13:47:49;;;;;;;17.13;5.70;;;;;;;;;;5032038;28;20487;-70
2021/07/28 13:50:16;;;;;;;13.05;3.97;;;;;;;;;;5031927;28;20483;-71
2021/07/28 13:52:42;;;;;;;13.63;4.60;;;;;;;;;;5047863;28;20044;-70
2021/07/28 13:55:09;;;;;;;16.02;4.13;;;;;;;;;;5049587;28;20024;-71
2021/07/28 13:57:35;;;;;;;13.07;4.10;;;;;;;;;;5033541;28;20480;-71
2021/07/28 14:00:01;;;;;;;14.60;4.20;;;;;;;;;;5047545;28;20040;-70
2021/07/28 14:02:28;;;;;;;10.82;3.65;;;;;;;;;;5051383;28;20021;-70
2021/07/28 14:04:55;;;;;;;12.23;4.20;;;;;;;;;;5051689;28;20476;-70
2021/07/28 14:07:21;;;;;;;12.05;4.20;;;;;;;;;;5034007;28;20022;-71
2021/07/28 14:09:47;;;;;;;9.55;4.07;;;;;;;;;;5031534;28;20116;-70
2021/07/28 14:12:13;;;;;;;11.52;3.80;;;;;;;;;;5031659;28;20041;-70
2021/07/28 14:14:39;;;;;;;11.88;3.85;;;;;;;;;;5031648;28;20018;-69
2021/07/28 14:17:07;;;;;;;9.57;3.95;;;;;;;;;;5031771;28;20147;-69
2021/07/28 14:19:34;;;;;;;9.20;3.67;;;;;;;;;;5048972;28;20021;-70
2021/07/28 14:22:00;;;;;;;10.55;3.70;;;;;;;;;;5051536;28;20025;-70
2021/07/28 14:24:26;;;;;;;9.90;3.58;;;;;;;;;;5051432;28;20412;-70
2021/07/28 14:26:52;;;;;;;11.10;3.30;;;;;;;;;;5050172;28;20021;-68
2021/07/28 14:29:18;;;;;;;10.75;3.42;;;;;;;;;;5052221;28;20044;-68
2021/07/28 14:31:44;;;;;;;8.07;3.22;;;;;;;;;;5053519;28;20025;-70
2021/07/28 14:34:10;;;;;;;7.30;3.38;;;;;;;;;;5055034;28;20082;-69
2021/07/28 14:36:37;;;;;;;10.15;3.55;;;;;;;;;;5055017;28;20052;-69